Time;durP1;ratioP1;P1;durP2;ratioP2;P2;SDS_P1;SDS_P2;PMS_P1;PMS_P2;Temp;Humidity;BMP_temperature;BMP_pressure;BME280_temperature;BME280_humidity;BME280_pressure;Samples;Min_cycle;Max_cycle;Signal;HPM_P1;HPM_P2
2022/11/28 00:02:13;;;;;;;22.40;10.45;;;;;;;2.87;100.00;98386.38;5067802;28;20032;-75
2022/11/28 00:04:38;;;;;;;21.15;10.02;;;;;;;2.91;100.00;98407.44;5075748;28;20036;-77
2022/11/28 00:07:04;;;;;;;23.20;10.73;;;;;;;3.02;100.00;98420.44;5068945;28;20021;-78
2022/11/28 00:09:30;;;;;;;28.13;12.55;;;;;;;3.01;100.00;98405.53;5084788;28;20031;-77
2022/11/28 00:11:55;;;;;;;35.10;11.00;;;;;;;2.91;100.00;98425.06;5056704;28;20510;-78
2022/11/28 00:14:21;;;;;;;24.40;11.23;;;;;;;2.97;100.00;98427.59;5078449;28;20403;-78
2022/11/28 00:16:47;;;;;;;23.58;10.10;;;;;;;2.88;100.00;98428.63;5065916;28;20157;-77
2022/11/28 00:19:13;;;;;;;26.65;10.50;;;;;;;2.96;100.00;98429.38;5060437;28;20066;-76
2022/11/28 00:21:39;;;;;;;29.88;12.65;;;;;;;3.02;100.00;98437.19;5063340;28;20049;-76
2022/11/28 00:24:05;;;;;;;27.48;12.27;;;;;;;3.00;100.00;98446.91;5063601;28;20024;-76
2022/11/28 00:26:34;;;;;;;23.95;10.98;;;;;;;3.04;100.00;98442.47;5062400;28;20020;-76
2022/11/28 00:28:59;;;;;;;23.90;10.27;;;;;;;3.01;100.00;98439.88;5061996;28;20393;-76
2022/11/28 00:31:41;;;;;;;24.70;10.93;;;;;;;3.10;100.00;98435.28;5075430;28;20020;-75
2022/11/28 00:34:08;;;;;;;20.80;10.05;;;;;;;3.10;100.00;98427.38;5081491;28;20499;-76
2022/11/28 00:36:33;;;;;;;26.23;11.30;;;;;;;2.94;100.00;98411.81;5073627;28;20491;-76
2022/11/28 00:38:59;;;;;;;31.02;13.65;;;;;;;2.99;100.00;98424.03;5064474;28;20086;-77
2022/11/28 00:41:27;;;;;;;39.85;16.10;;;;;;;3.00;100.00;98423.13;5078940;28;20085;-76
2022/11/28 00:43:53;;;;;;;22.30;10.38;;;;;;;2.82;100.00;98415.53;5053920;28;20115;-77
2022/11/28 00:46:20;;;;;;;20.13;9.38;;;;;;;2.90;100.00;98423.31;5057362;28;20066;-78
2022/11/28 00:48:46;;;;;;;22.77;9.52;;;;;;;2.94;100.00;98432.94;5083634;28;20028;-78
2022/11/28 00:51:14;;;;;;;21.58;9.05;;;;;;;2.88;100.00;98425.13;5061951;28;20127;-79
2022/11/28 00:53:41;;;;;;;23.88;9.82;;;;;;;2.95;100.00;98437.34;5068033;28;20035;-76
2022/11/28 00:56:09;;;;;;;23.05;9.75;;;;;;;2.99;100.00;98436.34;5090297;28;20443;-77
2022/11/28 00:58:35;;;;;;;22.88;10.07;;;;;;;2.97;100.00;98430.25;5073677;28;20465;-77
2022/11/28 01:01:11;;;;;;;20.77;9.55;;;;;;;2.91;100.00;98425.94;5073370;28;20067;-79
2022/11/28 01:03:37;;;;;;;22.35;9.68;;;;;;;2.94;100.00;98446.16;5067967;28;20048;-78
2022/11/28 01:06:04;;;;;;;22.48;9.55;;;;;;;2.83;100.00;98421.69;5069876;28;20066;-78
2022/11/28 01:08:30;;;;;;;23.95;9.77;;;;;;;2.94;100.00;98435.59;5066104;28;20028;-78
2022/11/28 01:10:55;;;;;;;26.42;10.23;;;;;;;3.03;100.00;98435.41;5082025;28;20517;-77
2022/11/28 01:13:21;;;;;;;20.90;10.00;;;;;;;2.89;100.00;98429.53;5072670;28;20032;-77
2022/11/28 01:15:47;;;;;;;22.55;9.18;;;;;;;2.96;100.00;98433.78;5090382;28;20023;-78
2022/11/28 01:18:12;;;;;;;23.33;10.18;;;;;;;2.98;100.00;98421.44;5064611;28;20036;-79
2022/11/28 01:20:38;;;;;;;21.25;10.63;;;;;;;2.80;100.00;98390.06;5076582;28;20134;-78
2022/11/28 01:23:03;;;;;;;24.67;10.68;;;;;;;2.87;100.00;98418.09;5079458;28;20028;-77
2022/11/28 01:25:29;;;;;;;24.02;9.50;;;;;;;2.94;100.00;98414.44;5053181;28;20060;-76
2022/11/28 01:27:55;;;;;;;23.27;10.70;;;;;;;2.95;100.00;98427.66;5053206;28;20036;-76
2022/11/28 01:30:20;;;;;;;19.75;9.18;;;;;;;2.92;100.00;98422.41;5080364;28;20029;-76
2022/11/28 01:32:46;;;;;;;22.45;10.35;;;;;;;2.93;100.00;98423.25;5089743;28;20032;-76
2022/11/28 01:35:11;;;;;;;22.10;9.18;;;;;;;2.96;100.00;98428.47;5072958;28;20039;-77
2022/11/28 01:37:37;;;;;;;20.63;9.43;;;;;;;2.79;100.00;98410.31;5077107;28;20034;-76
2022/11/28 01:40:03;;;;;;;18.65;9.25;;;;;;;2.84;100.00;98418.13;5077783;28;20032;-77
2022/11/28 01:42:29;;;;;;;18.60;9.68;;;;;;;2.84;100.00;98416.38;5056056;28;20020;-76
2022/11/28 01:44:54;;;;;;;21.35;10.40;;;;;;;2.92;100.00;98424.19;5074863;28;20074;-76
2022/11/28 01:47:24;;;;;;;20.80;9.18;;;;;;;2.72;100.00;98417.47;5085139;28;20040;-77
2022/11/28 01:49:57;;;;;;;24.58;10.77;;;;;;;2.70;100.00;98397.25;5062922;28;20082;-76
2022/11/28 01:52:23;;;;;;;19.85;9.85;;;;;;;2.57;100.00;98378.13;5058713;28;20041;-77
2022/11/28 01:54:52;;;;;;;28.05;10.80;;;;;;;2.49;100.00;98377.34;5068729;28;20022;-77
2022/11/28 01:57:21;;;;;;;23.70;9.88;;;;;;;2.75;100.00;98419.16;5084116;28;20036;-77
2022/11/28 01:59:53;;;;;;;19.75;9.25;;;;;;;2.73;100.00;98413.94;5082013;28;20056;-78
2022/11/28 02:02:36;;;;;;;19.13;8.35;;;;;;;2.66;100.00;98404.34;5073216;28;20047;-75
2022/11/28 02:05:01;;;;;;;19.88;10.15;;;;;;;2.69;100.00;98409.59;5073481;28;20066;-77
2022/11/28 02:07:27;;;;;;;24.20;9.48;;;;;;;2.81;100.00;98421.72;5066779;28;20488;-77
2022/11/28 02:09:52;;;;;;;17.70;8.63;;;;;;;2.91;100.00;98422.41;5068326;28;20054;-77
2022/11/28 02:12:39;;;;;;;17.50;8.15;;;;;;;2.83;100.00;98401.41;5075998;28;20468;-76
2022/11/28 02:15:25;;;;;;;20.70;9.13;;;;;;;3.00;100.00;98417.84;5078935;28;20103;-76
2022/11/28 02:18:18;;;;;;;16.98;8.10;;;;;;;2.81;100.00;98376.81;5073283;28;20036;-77
2022/11/28 02:21:02;;;;;;;18.17;8.10;;;;;;;3.01;100.00;98394.94;5081332;28;20119;-77
2022/11/28 02:23:43;;;;;;;17.98;8.40;;;;;;;2.90;100.00;98392.47;5083014;28;20070;-78
2022/11/28 02:26:22;;;;;;;17.38;7.55;;;;;;;2.86;100.00;98379.38;5078731;28;20438;-78
2022/11/28 02:29:14;;;;;;;16.17;8.20;;;;;;;2.74;100.00;98385.72;5082843;28;20028;-78
2022/11/28 02:32:14;;;;;;;13.93;7.22;;;;;;;2.71;100.00;98396.34;5064005;28;20025;-78
2022/11/28 02:35:10;;;;;;;15.65;7.50;;;;;;;2.80;100.00;98398.81;5055873;28;20111;-78
2022/11/28 02:37:46;;;;;;;12.40;6.63;;;;;;;2.74;100.00;98394.53;5079196;28;20036;-77
2022/11/28 02:40:22;;;;;;;14.23;6.97;;;;;;;2.76;100.00;98401.56;5085911;28;20036;-76
2022/11/28 02:43:02;;;;;;;16.25;8.18;;;;;;;2.67;100.00;98397.31;5060615;28;20026;-78
2022/11/28 02:45:42;;;;;;;15.40;7.32;;;;;;;2.77;100.00;98404.16;5067629;28;20032;-75
2022/11/28 02:48:14;;;;;;;16.90;8.30;;;;;;;2.64;100.00;98389.44;5069246;28;20028;-75
2022/11/28 02:50:52;;;;;;;16.33;8.02;;;;;;;2.54;100.00;98379.94;5055917;28;20060;-77
2022/11/28 02:53:21;;;;;;;19.08;7.57;;;;;;;2.61;100.00;98382.44;5080996;28;20032;-77
2022/11/28 02:55:48;;;;;;;16.42;7.85;;;;;;;2.70;100.00;98390.22;5055337;28;20028;-76
2022/11/28 02:58:14;;;;;;;17.17;8.85;;;;;;;2.62;100.00;98389.47;5080994;28;20032;-77
2022/11/28 03:00:44;;;;;;;16.98;7.68;;;;;;;2.88;100.00;98406.63;5074498;28;20040;-77
2022/11/28 03:03:13;;;;;;;18.15;7.65;;;;;;;2.77;100.00;98392.75;5076286;28;20490;-78
2022/11/28 03:05:44;;;;;;;14.77;7.95;;;;;;;2.59;100.00;98392.16;5084093;28;20398;-78
2022/11/28 03:08:13;;;;;;;18.53;7.47;;;;;;;2.56;100.00;98389.56;5086349;28;20403;-77
2022/11/28 03:10:50;;;;;;;17.50;8.80;;;;;;;2.73;100.00;98399.84;5083677;28;20044;-76
2022/11/28 03:13:54;;;;;;;19.35;8.20;;;;;;;2.54;100.00;98390.50;5076867;28;20492;-78
2022/11/28 03:16:40;;;;;;;20.15;9.05;;;;;;;2.58;100.00;98395.72;5083805;28;20372;-78
2022/11/28 03:19:11;;;;;;;22.45;9.27;;;;;;;2.65;100.00;98407.88;5074339;28;20044;-76
2022/11/28 03:21:45;;;;;;;22.88;9.55;;;;;;;2.65;100.00;98405.25;5080296;28;20398;-76
2022/11/28 03:24:31;;;;;;;25.33;10.88;;;;;;;2.55;100.00;98392.25;5055429;28;20024;-77
2022/11/28 03:27:25;;;;;;;26.48;12.13;;;;;;;2.61;100.00;98395.66;5059978;28;20024;-77
2022/11/28 03:29:54;;;;;;;26.60;11.48;;;;;;;2.68;100.00;98399.91;5066710;28;20024;-77
2022/11/28 03:32:25;;;;;;;26.52;11.38;;;;;;;2.55;100.00;98395.72;5068376;28;20029;-77
2022/11/28 03:34:56;;;;;;;25.13;11.65;;;;;;;2.65;100.00;98402.59;5080279;28;20048;-77
2022/11/28 03:37:44;;;;;;;31.02;13.55;;;;;;;2.62;100.00;98397.38;5087662;28;20540;-76
2022/11/28 03:40:14;;;;;;;25.13;11.20;;;;;;;2.65;100.00;98393.81;5083712;28;20436;-77
2022/11/28 03:42:47;;;;;;;22.15;11.43;;;;;;;2.70;100.00;98394.63;5082450;28;20055;-76
2022/11/28 03:45:40;;;;;;;22.23;10.20;;;;;;;2.66;100.00;98399.06;5072176;28;20028;-77
2022/11/28 03:48:12;;;;;;;23.85;10.57;;;;;;;2.54;100.00;98391.38;5047343;28;20086;-76
2022/11/28 03:50:45;;;;;;;20.27;10.45;;;;;;;2.67;100.00;98406.13;5066264;28;20028;-76
2022/11/28 03:53:15;;;;;;;24.40;10.73;;;;;;;2.60;100.00;98398.31;5063036;28;20420;-77
2022/11/28 03:55:48;;;;;;;24.05;11.10;;;;;;;2.65;100.00;98399.09;5080731;28;20162;-78
2022/11/28 03:58:35;;;;;;;21.98;10.48;;;;;;;2.57;100.00;98393.97;5069301;28;20495;-77
2022/11/28 04:01:56;;;;;;;26.15;11.30;;;;;;;2.39;100.00;98366.97;5062771;28;20028;-78
2022/11/28 04:04:28;;;;;;;19.95;10.15;;;;;;;2.49;100.00;98390.56;5045045;28;20032;-77
2022/11/28 04:06:59;;;;;;;28.75;12.07;;;;;;;2.59;100.00;98402.72;5017594;28;20045;-77
2022/11/28 04:09:36;;;;;;;27.90;12.15;;;;;;;2.55;100.00;98398.38;5060153;28;20111;-77
2022/11/28 04:12:27;;;;;;;19.00;9.52;;;;;;;2.53;100.00;98402.81;5056741;28;20039;-76
2022/11/28 04:14:56;;;;;;;21.50;10.30;;;;;;;2.40;100.00;98388.06;5084026;28;20024;-76
2022/11/28 04:17:29;;;;;;;27.40;11.80;;;;;;;2.50;100.00;98404.63;5071112;28;20518;-77
2022/11/28 04:20:03;;;;;;;23.30;10.90;;;;;;;2.52;100.00;98398.41;5064900;28;20032;-77
2022/11/28 04:22:36;;;;;;;28.35;13.13;;;;;;;2.51;100.00;98394.06;5081233;28;20028;-78
2022/11/28 04:25:10;;;;;;;32.22;13.07;;;;;;;2.50;100.00;98396.72;5054669;28;20162;-78
2022/11/28 04:27:47;;;;;;;32.65;13.38;;;;;;;2.52;100.00;98395.78;5056971;28;20157;-79
2022/11/28 04:30:13;;;;;;;28.42;12.73;;;;;;;2.61;100.00;98395.66;5056795;28;20032;-75
2022/11/28 04:32:43;;;;;;;27.85;12.88;;;;;;;2.47;100.00;98389.72;5054145;28;20035;-77
2022/11/28 04:35:12;;;;;;;26.88;12.38;;;;;;;2.44;100.00;98391.53;5079023;28;20524;-78
2022/11/28 04:37:38;;;;;;;25.90;12.35;;;;;;;2.47;100.00;98402.03;5054160;28;20031;-77
2022/11/28 04:40:09;;;;;;;24.77;11.90;;;;;;;2.54;100.00;98399.28;5066576;28;20040;-78
2022/11/28 04:42:39;;;;;;;23.17;11.65;;;;;;;2.52;100.00;98398.41;5098215;28;20396;-78
2022/11/28 04:45:10;;;;;;;31.88;12.88;;;;;;;2.55;100.00;98392.25;5065660;28;20574;-77
2022/11/28 04:47:36;;;;;;;24.67;12.07;;;;;;;2.53;100.00;98394.00;5042425;28;20039;-77
2022/11/28 04:50:02;;;;;;;32.00;14.20;;;;;;;2.52;100.00;98401.06;5063204;28;20052;-81
2022/11/28 04:52:42;;;;;;;26.88;12.90;;;;;;;2.37;100.00;98380.19;5073140;28;20028;-77
2022/11/28 04:55:24;;;;;;;31.98;13.82;;;;;;;2.31;100.00;98380.28;5059542;28;20036;-76
2022/11/28 04:58:04;;;;;;;33.88;14.77;;;;;;;2.37;100.00;98385.47;5056819;28;20036;-77
2022/11/28 05:00:55;;;;;;;23.30;12.27;;;;;;;2.31;100.00;98406.69;5053869;28;20039;-79
2022/11/28 05:03:21;;;;;;;19.60;9.77;;;;;;;2.32;100.00;98413.72;5053933;28;20435;-78
2022/11/28 05:05:49;;;;;;;24.13;10.88;;;;;;;2.19;100.00;98391.91;5070617;28;20107;-78
2022/11/28 05:08:17;;;;;;;20.88;9.32;;;;;;;2.43;100.00;98426.75;5054337;28;20031;-78
2022/11/28 05:10:42;;;;;;;22.75;10.02;;;;;;;2.48;100.00;98425.78;5067833;28;20485;-77
2022/11/28 05:13:08;;;;;;;23.08;11.32;;;;;;;2.44;100.00;98417.94;5084957;28;20044;-76
2022/11/28 05:15:34;;;;;;;24.33;10.07;;;;;;;2.44;100.00;98424.09;5073514;28;20024;-77
2022/11/28 05:18:03;;;;;;;24.27;11.15;;;;;;;2.41;100.00;98421.50;5065084;28;20035;-79
2022/11/28 05:20:29;;;;;;;22.17;10.25;;;;;;;2.36;100.00;98419.81;5070992;28;20105;-78
2022/11/28 05:22:54;;;;;;;29.30;11.15;;;;;;;2.43;100.00;98432.03;5061653;28;20472;-80
2022/11/28 05:25:20;;;;;;;21.73;10.85;;;;;;;2.43;100.00;98432.88;5067536;28;20131;-70
2022/11/28 05:27:46;;;;;;;30.95;13.48;;;;;;;2.46;100.00;98435.47;5069168;28;20073;-80
2022/11/28 05:30:12;;;;;;;28.83;12.25;;;;;;;2.44;100.00;98423.22;5064452;28;20044;-78
2022/11/28 05:32:37;;;;;;;32.47;14.65;;;;;;;2.48;100.00;98423.16;5061310;28;20029;-79
2022/11/28 05:35:04;;;;;;;27.27;11.55;;;;;;;2.58;100.00;98430.03;5070371;28;20043;-77
2022/11/28 05:37:29;;;;;;;29.52;12.45;;;;;;;2.59;100.00;98420.31;5052092;28;20036;-80
2022/11/28 05:39:55;;;;;;;24.63;12.30;;;;;;;2.60;100.00;98422.94;5077141;28;20028;-79
2022/11/28 05:42:29;;;;;;;43.45;15.25;;;;;;;2.57;100.00;98427.41;5055462;28;20111;-80
2022/11/28 05:44:55;;;;;;;37.72;18.27;;;;;;;2.57;100.00;98425.63;5062147;28;20443;-80
2022/11/28 05:47:22;;;;;;;42.60;20.40;;;;;;;2.63;100.00;98433.47;5060736;28;20033;-79
2022/11/28 05:49:48;;;;;;;46.85;22.15;;;;;;;2.63;100.00;98417.63;5056929;28;20032;-79
2022/11/28 05:52:13;;;;;;;44.53;19.25;;;;;;;2.67;100.00;98419.31;5071853;28;20048;-79
2022/11/28 05:54:39;;;;;;;48.15;20.83;;;;;;;2.64;100.00;98405.28;5061073;28;20037;-79
2022/11/28 05:57:07;;;;;;;45.78;17.65;;;;;;;2.52;100.00;98394.94;5069357;28;20031;-79
2022/11/28 05:59:33;;;;;;;36.03;16.70;;;;;;;2.48;100.00;98396.75;5081466;28;20031;-78
2022/11/28 06:01:58;;;;;;;37.22;18.10;;;;;;;2.49;100.00;98406.38;5067726;28;20020;-79
2022/11/28 06:04:24;;;;;;;44.25;18.60;;;;;;;2.50;100.00;98399.34;5063760;28;20055;-79
2022/11/28 06:06:50;;;;;;;37.45;16.75;;;;;;;2.34;100.00;98384.69;5075727;28;20035;-79
2022/11/28 06:09:15;;;;;;;64.20;27.67;;;;;;;2.54;100.00;98403.69;5057934;28;20389;-79
2022/11/28 06:11:41;;;;;;;45.03;19.77;;;;;;;2.44;100.00;98380.97;5065838;28;20048;-79
2022/11/28 06:14:07;;;;;;;44.42;19.58;;;;;;;2.49;100.00;98395.84;5058825;28;20411;-78
2022/11/28 06:16:35;;;;;;;38.95;17.52;;;;;;;2.42;100.00;98383.66;5067039;28;20032;-77
2022/11/28 06:19:03;;;;;;;34.63;16.08;;;;;;;2.49;100.00;98398.47;5060459;28;20051;-78
2022/11/28 06:21:29;;;;;;;28.73;14.15;;;;;;;2.46;100.00;98406.44;5084509;28;20520;-77
2022/11/28 06:23:56;;;;;;;36.60;15.07;;;;;;;2.43;100.00;98395.94;5067107;28;20089;-79
2022/11/28 06:26:23;;;;;;;39.40;18.73;;;;;;;2.48;100.00;98406.44;5071140;28;20032;-79
2022/11/28 06:28:49;;;;;;;35.15;16.15;;;;;;;2.49;100.00;98403.75;5086331;28;20047;-79
2022/11/28 06:31:17;;;;;;;38.40;16.25;;;;;;;2.43;100.00;98395.94;5059555;28;20128;-79
2022/11/28 06:33:42;;;;;;;32.03;15.77;;;;;;;2.45;100.00;98393.28;5076077;28;20536;-77
2022/11/28 06:36:09;;;;;;;33.05;15.07;;;;;;;2.37;100.00;98379.34;5076562;28;20040;-77
2022/11/28 06:38:34;;;;;;;40.17;17.63;;;;;;;2.34;100.00;98388.16;5064896;28;20581;-77
2022/11/28 06:41:03;;;;;;;35.47;16.05;;;;;;;2.47;100.00;98397.63;5060049;28;20123;-78
2022/11/28 06:43:29;;;;;;;37.35;16.13;;;;;;;2.28;100.00;98375.06;5076226;28;20020;-77
2022/11/28 06:45:54;;;;;;;34.55;15.15;;;;;;;2.40;100.00;98389.84;5065042;28;20495;-78
2022/11/28 06:48:20;;;;;;;30.35;14.90;;;;;;;2.41;100.00;98397.72;5090035;28;20054;-77
2022/11/28 06:50:46;;;;;;;33.35;15.80;;;;;;;2.42;100.00;98401.25;5087480;28;20024;-78
2022/11/28 06:53:13;;;;;;;52.13;21.88;;;;;;;2.42;100.00;98399.50;5065046;28;20024;-76
2022/11/28 06:55:39;;;;;;;58.45;27.45;;;;;;;2.50;100.00;98412.56;5086974;28;20028;-77
2022/11/28 06:58:04;;;;;;;60.80;27.90;;;;;;;2.37;100.00;98384.63;5083638;28;20063;-77
2022/11/28 07:00:30;;;;;;;63.58;27.85;;;;;;;2.42;100.00;98399.50;5084096;28;20056;-78
2022/11/28 07:02:56;;;;;;;61.45;27.63;;;;;;;2.52;100.00;98398.41;5067134;28;20035;-79
2022/11/28 07:05:26;;;;;;;54.65;24.05;;;;;;;2.63;100.00;98409.69;5080899;28;20029;-77
2022/11/28 07:07:52;;;;;;;63.47;26.75;;;;;;;2.73;100.00;98416.56;5064432;28;20035;-79
2022/11/28 07:10:18;;;;;;;48.83;18.35;;;;;;;2.39;100.00;98394.25;5073752;28;20032;-78
2022/11/28 07:12:44;;;;;;;38.80;17.77;;;;;;;2.44;100.00;98394.16;5083604;28;20059;-76
2022/11/28 07:15:10;;;;;;;40.08;17.80;;;;;;;2.56;100.00;98396.59;5058471;28;20040;-77
2022/11/28 07:17:35;;;;;;;36.00;17.08;;;;;;;2.70;100.00;98416.63;5069257;28;20082;-77
2022/11/28 07:20:01;;;;;;;183.57;82.15;;;;;;;2.71;100.00;98409.53;5067355;28;20040;-78
2022/11/28 07:22:39;;;;;;;57.60;24.13;;;;;;;2.83;100.00;98421.69;5066668;28;20483;-78
2022/11/28 07:25:05;;;;;;;41.38;19.77;;;;;;;2.68;100.00;98407.84;5064190;28;20024;-78
2022/11/28 07:27:30;;;;;;;50.28;22.45;;;;;;;2.66;100.00;98414.06;5061948;28;20071;-77
2022/11/28 07:29:56;;;;;;;98.45;44.85;;;;;;;2.71;100.00;98417.47;5072878;28;20055;-78
2022/11/28 07:32:21;;;;;;;44.40;21.42;;;;;;;2.74;100.00;98420.06;5065126;28;20458;-77
2022/11/28 07:34:47;;;;;;;62.92;29.95;;;;;;;2.76;100.00;98406.84;5063190;28;20537;-78
2022/11/28 07:37:12;;;;;;;82.18;21.42;;;;;;;2.92;100.00;98410.97;5071923;28;20028;-78
2022/11/28 07:39:39;;;;;;;41.03;18.95;;;;;;;2.81;100.00;98403.22;5067715;28;20032;-78
2022/11/28 07:42:04;;;;;;;81.65;35.78;;;;;;;2.96;100.00;98404.72;5068937;28;20031;-78
2022/11/28 07:44:30;;;;;;;60.25;24.60;;;;;;;2.95;100.00;98400.34;5088908;28;20036;-79
2022/11/28 07:46:56;;;;;;;46.45;20.70;;;;;;;2.81;100.00;98397.94;5062344;28;20098;-78
2022/11/28 07:49:21;;;;;;;45.33;21.83;;;;;;;2.77;100.00;98390.94;5074327;28;20547;-79
2022/11/28 07:51:47;;;;;;;42.67;18.83;;;;;;;2.66;100.00;98366.50;5082488;28;20066;-78
2022/11/28 07:54:12;;;;;;;43.67;20.33;;;;;;;2.82;100.00;98396.16;5062776;28;20036;-79
2022/11/28 07:56:38;;;;;;;47.13;19.10;;;;;;;2.84;100.00;98392.59;5076772;28;20035;-78
2022/11/28 07:59:13;;;;;;;32.10;15.82;;;;;;;2.64;100.00;98385.03;5057369;28;20483;-79
2022/11/28 08:01:39;;;;;;;33.80;14.77;;;;;;;2.68;100.00;98391.13;5055634;28;20024;-78
2022/11/28 08:04:08;;;;;;;49.63;22.40;;;;;;;2.81;100.00;98403.22;5072488;28;20066;-78
2022/11/28 08:06:36;;;;;;;46.83;21.92;;;;;;;2.68;100.00;98388.47;5070958;28;20077;-78
2022/11/28 08:09:02;;;;;;;50.47;21.60;;;;;;;2.68;100.00;98392.00;5067806;28;20029;-79
2022/11/28 08:11:29;;;;;;;55.90;25.35;;;;;;;2.86;100.00;98411.06;5059516;28;20055;-79
2022/11/28 08:13:56;;;;;;;56.47;26.55;;;;;;;3.03;100.00;98415.16;5068036;28;20050;-78
2022/11/28 08:16:23;;;;;;;56.28;24.10;;;;;;;3.06;100.00;98406.28;5062403;28;20063;-79
2022/11/28 08:18:53;;;;;;;57.80;25.25;;;;;;;3.01;100.00;98405.53;5084039;28;20089;-77
2022/11/28 08:21:25;;;;;;;62.53;26.05;;;;;;;2.96;100.00;98399.41;5066077;28;20066;-78
2022/11/28 08:23:52;;;;;;;59.13;26.20;;;;;;;3.11;100.00;98405.31;5080271;28;20051;-79
2022/11/28 08:26:23;;;;;;;65.68;28.48;;;;;;;3.36;100.00;98415.41;5056851;28;20032;-79
2022/11/28 08:28:58;;;;;;;95.88;41.35;;;;;;;3.36;100.00;98402.19;5067749;28;20043;-78
2022/11/28 08:31:35;;;;;;;93.45;37.65;;;;;;;3.26;100.00;98375.09;5079321;28;20051;-80
2022/11/28 08:34:04;;;;;;;88.88;37.47;;;;;;;3.36;100.00;98381.03;5070897;28;20456;-78
2022/11/28 08:36:32;;;;;;;86.38;36.72;;;;;;;3.38;100.00;98373.97;5068367;28;20446;-77
2022/11/28 08:39:05;;;;;;;79.25;35.78;;;;;;;3.36;100.00;98376.63;5057438;28;20035;-78
2022/11/28 08:41:31;;;;;;;47.72;22.13;;;;;;;3.33;100.00;98355.53;5063268;28;20494;-77
2022/11/28 08:43:56;;;;;;;47.25;22.98;;;;;;;3.39;100.00;98339.53;5074493;28;20017;-78
2022/11/28 08:46:22;;;;;;;60.03;25.63;;;;;;;3.12;100.00;98282.84;5062185;28;20028;-79
2022/11/28 08:48:51;;;;;;;59.25;26.70;;;;;;;3.10;100.00;98282.00;5073065;28;20031;-79
2022/11/28 08:51:20;;;;;;;64.50;28.15;;;;;;;3.28;100.00;98330.97;5066937;28;20039;-76
2022/11/28 08:53:45;;;;;;;69.82;30.80;;;;;;;3.36;100.00;98339.59;5080931;28;20047;-78
2022/11/28 08:56:12;;;;;;;60.55;26.27;;;;;;;3.57;100.00;98356.81;5079601;28;20028;-78
2022/11/28 08:58:38;;;;;;;50.45;22.77;;;;;;;3.66;100.00;98349.53;5065250;28;20085;-78
2022/11/28 09:01:04;;;;;;;48.25;19.77;;;;;;;3.55;100.00;98330.38;5067575;28;20097;-79
2022/11/28 09:03:29;;;;;;;58.95;26.17;;;;;;;3.59;100.00;98321.50;5065303;28;20461;-78
2022/11/28 09:06:01;;;;;;;51.45;22.77;;;;;;;3.70;100.00;98322.13;5070748;28;20028;-78
2022/11/28 09:08:26;;;;;;;46.47;21.48;;;;;;;3.71;100.00;98323.88;5059259;28;20032;-78
2022/11/28 09:10:52;;;;;;;52.55;25.38;;;;;;;3.68;100.00;98293.97;5055934;28;20062;-78
2022/11/28 09:13:17;;;;;;;46.38;20.45;;;;;;;3.60;100.00;98283.53;5068564;28;20035;-77
2022/11/28 09:15:45;;;;;;;48.28;22.38;;;;;;;3.85;100.00;98312.94;5090151;28;20056;-77
2022/11/28 09:18:13;;;;;;;47.05;21.92;;;;;;;3.67;100.00;98273.69;5067457;28;20033;-77
2022/11/28 09:20:39;;;;;;;46.53;22.90;;;;;;;3.78;100.00;98280.47;5066042;28;20055;-77
2022/11/28 09:23:05;;;;;;;38.72;18.05;;;;;;;3.89;100.00;98282.88;5058647;28;20028;-77
2022/11/28 09:25:30;;;;;;;46.72;18.70;;;;;;;3.88;100.00;98289.06;5069682;28;20032;-78
2022/11/28 09:27:56;;;;;;;33.28;17.08;;;;;;;3.99;100.00;98292.34;5066790;28;20028;-77
2022/11/28 09:30:21;;;;;;;40.72;20.05;;;;;;;3.91;100.00;98270.47;5058566;28;20392;-77
2022/11/28 09:32:53;;;;;;;26.25;14.25;;;;;;;3.82;100.00;98246.88;5081035;28;20029;-77
2022/11/28 09:35:21;;;;;;;30.73;15.17;;;;;;;3.95;100.00;98265.97;5067046;28;20465;-77
2022/11/28 09:37:47;;;;;;;34.58;16.20;;;;;;;3.87;100.00;98262.66;5066717;28;20487;-77
2022/11/28 09:40:44;;;;;;;27.58;15.38;;;;;;;3.79;100.00;98247.81;5061820;28;20025;-78
2022/11/28 09:43:32;;;;;;;30.38;14.23;;;;;;;3.84;100.00;98272.38;5079040;28;20503;-77
2022/11/28 09:45:59;;;;;;;31.27;15.25;;;;;;;3.97;100.00;98282.72;5064773;28;20039;-77
2022/11/28 09:48:29;;;;;;;26.23;13.13;;;;;;;3.94;100.00;98277.50;5056364;28;20036;-77
2022/11/28 09:50:59;;;;;;;35.03;16.17;;;;;;;3.87;100.00;98260.88;5067543;28;20028;-78
2022/11/28 09:53:35;;;;;;;32.10;15.73;;;;;;;3.87;100.00;98252.06;5061646;28;20376;-78
2022/11/28 09:56:07;;;;;;;34.53;17.33;;;;;;;3.92;100.00;98263.41;5060853;28;20609;-76
2022/11/28 09:58:47;;;;;;;25.58;12.02;;;;;;;3.92;100.00;98251.03;5071641;28;20112;-77
2022/11/28 10:01:21;;;;;;;58.38;28.48;;;;;;;3.92;100.00;98248.41;5076409;28;20040;-76
2022/11/28 10:04:10;;;;;;;42.28;16.77;;;;;;;3.96;100.00;98235.97;5069542;28;20059;-77
2022/11/28 10:06:35;;;;;;;33.60;16.35;;;;;;;4.02;100.00;98230.53;5054724;28;20032;-76
2022/11/28 10:09:23;;;;;;;32.67;15.43;;;;;;;4.01;100.00;98234.06;5084302;28;20031;-76
2022/11/28 10:12:06;;;;;;;29.58;14.95;;;;;;;4.02;100.00;98223.47;5082747;28;20036;-78
2022/11/28 10:14:40;;;;;;;37.75;17.27;;;;;;;4.03;100.00;98232.28;5088891;28;20507;-76
2022/11/28 10:17:38;;;;;;;34.33;14.95;;;;;;;4.13;100.00;98234.63;5087698;28;20101;-78
2022/11/28 10:20:11;;;;;;;35.95;17.40;;;;;;;4.13;100.00;98224.03;5069410;28;20047;-79
2022/11/28 10:22:41;;;;;;;34.83;17.17;;;;;;;4.13;100.00;98209.94;5083705;28;20604;-77
2022/11/28 10:25:16;;;;;;;32.47;15.25;;;;;;;4.23;100.00;98214.09;5081767;28;20024;-77
2022/11/28 10:27:42;;;;;;;32.13;15.82;;;;;;;4.25;100.00;98204.31;5084807;28;20076;-78
2022/11/28 10:30:32;;;;;;;28.90;13.23;;;;;;;4.12;100.00;98224.94;5061658;28;20099;-78
2022/11/28 10:33:21;;;;;;;30.75;13.45;;;;;;;3.81;100.00;98206.31;5081363;28;20052;-76
2022/11/28 10:35:52;;;;;;;27.05;14.65;;;;;;;3.80;100.00;98199.31;5089584;28;20443;-77
2022/11/28 10:38:24;;;;;;;27.38;13.40;;;;;;;3.77;100.00;98209.97;5071179;28;20475;-78
2022/11/28 10:40:59;;;;;;;22.88;12.13;;;;;;;4.01;100.00;98219.06;5065154;28;20024;-77
2022/11/28 10:43:42;;;;;;;19.77;10.88;;;;;;;3.96;100.00;98202.44;5077925;28;20028;-77
2022/11/28 10:46:28;;;;;;;24.63;12.90;;;;;;;3.93;100.00;98206.94;5081055;28;20085;-78
2022/11/28 10:49:26;;;;;;;23.58;13.18;;;;;;;3.90;100.00;98209.66;5075734;28;20463;-76
2022/11/28 10:52:01;;;;;;;29.27;13.57;;;;;;;3.61;100.00;98205.06;5081076;28;20126;-78
2022/11/28 10:54:45;;;;;;;29.65;14.27;;;;;;;3.45;100.00;98201.91;5092163;28;20028;-79
2022/11/28 10:57:17;;;;;;;30.23;13.85;;;;;;;3.68;100.00;98219.91;5069093;28;20032;-78
2022/11/28 11:00:11;;;;;;;27.65;14.45;;;;;;;3.72;100.00;98225.06;5073992;28;20099;-77
2022/11/28 11:02:47;;;;;;;33.33;17.75;;;;;;;3.82;100.00;98234.53;5052620;28;20024;-78
2022/11/28 11:05:19;;;;;;;36.47;18.17;;;;;;;3.98;100.00;98228.84;5075333;28;20503;-78
2022/11/28 11:07:53;;;;;;;45.15;21.75;;;;;;;4.13;100.00;98220.53;5077180;28;20066;-78
2022/11/28 11:10:28;;;;;;;44.75;22.02;;;;;;;4.21;100.00;98203.56;5070567;28;20040;-77
2022/11/28 11:12:53;;;;;;;39.22;19.77;;;;;;;4.12;100.00;98179.09;5086341;28;20110;-78
2022/11/28 11:15:32;;;;;;;39.35;18.90;;;;;;;4.19;100.00;98178.00;5066811;28;20067;-78
2022/11/28 11:18:03;;;;;;;40.28;19.63;;;;;;;4.17;100.00;98177.19;5061447;28;20503;-77
2022/11/28 11:20:39;;;;;;;37.50;20.08;;;;;;;4.17;100.00;98171.88;5058505;28;20028;-77
2022/11/28 11:23:12;;;;;;;42.28;21.25;;;;;;;4.38;100.00;98184.56;5076386;28;20353;-77
2022/11/28 11:25:48;;;;;;;33.42;15.85;;;;;;;4.46;100.00;98179.91;5074955;28;20164;-78
2022/11/28 11:28:39;;;;;;;24.63;12.32;;;;;;;4.45;100.00;98162.28;5064192;28;20122;-78
2022/11/28 11:31:26;;;;;;;23.17;12.87;;;;;;;4.35;100.00;98131.66;5078654;28;20031;-77
2022/11/28 11:34:04;;;;;;;28.20;13.55;;;;;;;4.42;100.00;98137.66;5061188;28;20024;-78
2022/11/28 11:36:33;;;;;;;27.60;12.98;;;;;;;4.41;100.00;98130.63;5091375;28;20372;-71
2022/11/28 11:39:11;;;;;;;24.23;11.98;;;;;;;4.39;100.00;98135.97;5091415;28;20381;-70